createdAt,value
2022-10-17T00:02:24.896Z,12.02
2022-10-17T00:07:26.675Z,17.35
2022-10-17T00:12:28.292Z,15.88
2022-10-17T00:17:30.164Z,14.73
2022-10-17T00:22:31.954Z,13.43
2022-10-17T00:27:38.057Z,17.00
2022-10-17T00:32:39.917Z,15.98
2022-10-17T00:37:41.315Z,13.73
2022-10-17T00:42:42.783Z,19.40
2022-10-17T00:47:48.439Z,20.85
2022-10-17T00:52:50.602Z,16.67
2022-10-17T00:57:53.062Z,19.15
2022-10-17T01:02:54.673Z,19.25
2022-10-17T01:07:56.545Z,24.17
2022-10-17T01:13:13.977Z,23.10
2022-10-17T01:18:39.946Z,17.75
2022-10-17T01:24:08.380Z,24.52
2022-10-17T01:29:33.448Z,20.65
2022-10-17T01:34:44.064Z,20.48
2022-10-17T01:39:54.129Z,19.02
2022-10-17T01:45:07.389Z,21.88
2022-10-17T01:50:16.740Z,20.75
2022-10-17T01:55:27.908Z,23.27
2022-10-17T02:00:31.255Z,20.92
2022-10-17T02:05:38.363Z,23.90
2022-10-17T02:10:52.110Z,24.90
2022-10-17T02:16:20.211Z,21.88
2022-10-17T02:21:39.962Z,27.17
2022-10-17T02:26:47.993Z,23.55
2022-10-17T02:32:05.644Z,21.20
2022-10-17T02:37:10.017Z,23.95
2022-10-17T02:42:13.833Z,24.95
2022-10-17T02:47:20.941Z,29.48
2022-10-17T02:52:37.261Z,21.20
2022-10-17T02:57:44.572Z,23.10
2022-10-17T03:02:49.288Z,22.42
2022-10-17T03:07:51.451Z,25.33
2022-10-17T03:12:52.871Z,25.45
2022-10-17T03:17:54.317Z,24.63
2022-10-17T03:22:55.763Z,23.65
2022-10-17T03:28:01.572Z,28.30
2022-10-17T03:33:03.041Z,26.55
2022-10-17T03:38:04.485Z,30.02
2022-10-17T03:43:05.981Z,25.08
2022-10-17T03:48:07.604Z,28.08
2022-10-17T03:53:09.029Z,24.17
2022-10-17T03:58:10.453Z,24.70
2022-10-17T04:03:14.946Z,21.95
2022-10-17T04:08:18.784Z,26.63
2022-10-17T04:13:20.268Z,24.88
2022-10-17T04:18:21.955Z,22.90
2022-10-17T04:23:23.374Z,20.75
2022-10-17T04:28:26.323Z,21.65
2022-10-17T04:33:28.561Z,22.30
2022-10-17T04:38:31.045Z,25.27
2022-10-17T04:43:34.305Z,31.58
2022-10-17T04:48:35.897Z,34.28
2022-10-17T04:53:38.513Z,34.13
2022-10-17T04:58:40.499Z,30.38
2022-10-17T05:03:42.332Z,35.42
2022-10-17T05:08:44.443Z,27.13
2022-10-17T05:13:53.240Z,29.92
2022-10-17T05:18:56.662Z,32.67
2022-10-17T05:23:58.501Z,27.08
2022-10-17T05:29:02.879Z,25.35
2022-10-17T05:34:04.521Z,27.75
2022-10-17T05:39:06.016Z,32.03
2022-10-17T05:44:07.400Z,27.67
2022-10-17T05:49:15.010Z,29.95
2022-10-17T05:54:27.317Z,32.53
2022-10-17T05:59:28.891Z,32.38
2022-10-17T06:04:30.350Z,35.20
2022-10-17T06:09:31.738Z,30.63
2022-10-17T06:14:33.444Z,27.92
2022-10-17T06:19:35.367Z,30.95
2022-10-17T06:24:36.762Z,35.17
2022-10-17T06:29:38.145Z,29.95
2022-10-17T06:34:39.808Z,34.53
2022-10-17T06:39:41.351Z,42.38
2022-10-17T06:44:42.841Z,39.55
2022-10-17T06:49:44.383Z,33.00
2022-10-17T06:54:46.087Z,32.28
2022-10-17T06:59:48.146Z,36.72
2022-10-17T07:04:49.986Z,37.72
2022-10-17T07:09:51.704Z,37.58
2022-10-17T07:14:53.178Z,38.30
2022-10-17T07:19:54.550Z,39.60
2022-10-17T07:24:56.190Z,42.08
2022-10-17T07:29:57.649Z,34.45
2022-10-17T07:34:59.051Z,34.50
2022-10-17T07:40:00.495Z,39.53
2022-10-17T07:45:02.224Z,38.45
2022-10-17T07:50:05.618Z,40.75
2022-10-17T07:55:07.882Z,43.58
2022-10-17T08:00:11.861Z,38.22
2022-10-17T08:05:13.388Z,33.47
2022-10-17T08:10:16.246Z,36.85
2022-10-17T08:15:17.701Z,36.92
2022-10-17T08:20:19.115Z,46.13
2022-10-17T08:25:20.720Z,27.08
2022-10-17T08:30:22.146Z,27.70
2022-10-17T08:35:25.244Z,26.90
2022-10-17T08:40:29.375Z,30.77
2022-10-17T08:45:41.425Z,26.67
2022-10-17T08:51:05.434Z,24.02
2022-10-17T08:56:44.028Z,26.85
2022-10-17T09:01:58.666Z,23.90
2022-10-17T09:07:13.038Z,27.17
2022-10-17T09:12:49.706Z,26.83
2022-10-17T09:17:56.408Z,26.20
2022-10-17T09:23:02.076Z,23.98
2022-10-17T09:28:15.624Z,25.80
2022-10-17T09:33:42.406Z,30.13
2022-10-17T09:38:54.421Z,24.25
2022-10-17T09:44:12.156Z,25.98
2022-10-17T09:49:19.823Z,26.17
2022-10-17T09:54:30.505Z,24.98
2022-10-17T09:59:35.411Z,25.27
2022-10-17T10:04:59.780Z,20.30
2022-10-17T10:10:00.280Z,19.42
2022-10-17T10:15:02.135Z,19.42
2022-10-17T10:20:30.648Z,19.40
2022-10-17T10:25:32.620Z,19.25
2022-10-17T10:30:36.221Z,17.65
2022-10-17T10:35:40.852Z,19.20
2022-10-17T10:40:52.639Z,17.15
2022-10-17T10:45:54.375Z,16.83
2022-10-17T10:51:17.439Z,22.48
2022-10-17T10:56:40.132Z,24.13
2022-10-17T11:01:47.546Z,12.65
2022-10-17T11:06:52.342Z,14.20
2022-10-17T11:12:20.481Z,16.77
2022-10-17T11:17:33.174Z,13.05
2022-10-17T11:22:42.210Z,14.90
2022-10-17T11:27:43.598Z,13.50
2022-10-17T11:32:56.890Z,13.98
2022-10-17T11:38:15.114Z,15.63
2022-10-17T11:43:25.549Z,16.35
2022-10-17T11:48:51.118Z,17.10
2022-10-17T11:54:17.597Z,19.65
2022-10-17T12:00:07.557Z,17.35
2022-10-17T12:05:56.514Z,17.67
2022-10-17T12:11:05.083Z,15.55
2022-10-17T12:16:21.489Z,15.57
2022-10-17T12:21:22.925Z,16.10
2022-10-17T12:26:29.516Z,19.55
2022-10-17T12:31:34.064Z,16.35
2022-10-17T12:36:35.852Z,15.68
2022-10-17T12:41:40.255Z,14.75
2022-10-17T12:47:06.168Z,16.10
2022-10-17T12:52:11.021Z,16.23
2022-10-17T12:57:33.811Z,16.25
2022-10-17T13:02:35.559Z,13.32
2022-10-17T13:07:40.719Z,12.18
2022-10-17T13:12:42.246Z,13.00
2022-10-17T13:17:43.980Z,11.10
2022-10-17T13:22:46.067Z,13.40
2022-10-17T13:27:48.886Z,16.00
2022-10-17T13:32:50.578Z,13.85
2022-10-17T13:37:54.157Z,11.93
2022-10-17T13:42:57.749Z,14.52
2022-10-17T13:48:05.515Z,15.20
2022-10-17T13:53:08.173Z,15.68
2022-10-17T13:58:18.889Z,15.52
2022-10-17T14:03:21.640Z,15.27
2022-10-17T14:08:23.811Z,11.00
2022-10-17T14:13:28.888Z,11.57
2022-10-17T14:18:36.386Z,10.27
2022-10-17T14:23:45.092Z,11.32
2022-10-17T14:28:51.126Z,11.73
2022-10-17T14:38:55.119Z,10.32
2022-10-17T14:43:59.778Z,13.15
2022-10-17T14:49:23.247Z,13.85
2022-10-17T14:54:27.524Z,16.23
2022-10-17T14:59:53.371Z,14.88
2022-10-17T15:04:50.488Z,13.10
2022-10-17T15:09:53.475Z,13.48
2022-10-17T15:14:55.011Z,15.77
2022-10-17T15:19:57.272Z,15.70
2022-10-17T15:24:58.647Z,17.40
2022-10-17T15:30:00.260Z,16.83
2022-10-17T15:35:01.644Z,15.27
2022-10-17T15:40:03.644Z,14.98
2022-10-17T15:45:05.841Z,15.48
2022-10-17T15:50:09.026Z,17.73
2022-10-17T15:55:11.140Z,18.88
2022-10-17T16:00:17.367Z,18.85
2022-10-17T16:05:26.013Z,19.13
2022-10-17T16:10:28.225Z,22.48
2022-10-17T16:15:29.765Z,24.98
2022-10-17T16:20:32.053Z,19.88
2022-10-17T16:25:33.867Z,22.33
2022-10-17T16:30:42.488Z,24.52
2022-10-17T16:35:45.620Z,21.77
2022-10-17T16:40:47.042Z,21.25
2022-10-17T16:45:48.476Z,23.60
2022-10-17T16:50:49.859Z,23.15
2022-10-17T16:56:05.044Z,22.92
2022-10-17T17:01:09.743Z,25.83
2022-10-17T17:06:19.188Z,24.75
2022-10-17T17:11:23.791Z,26.40
2022-10-17T17:16:26.894Z,24.60
2022-10-17T17:21:28.389Z,26.45
2022-10-17T17:26:32.902Z,26.63
2022-10-17T17:31:35.642Z,25.75
2022-10-17T17:36:38.079Z,25.95
2022-10-17T17:41:40.603Z,25.38
2022-10-17T17:46:43.525Z,27.02
2022-10-17T17:51:46.453Z,26.42
2022-10-17T17:56:47.970Z,27.70
2022-10-17T18:01:49.464Z,25.63
2022-10-17T18:06:50.922Z,29.45
2022-10-17T18:11:52.562Z,31.85
2022-10-17T18:16:53.955Z,32.92
2022-10-17T18:21:55.373Z,27.67
2022-10-17T18:26:59.776Z,37.97
2022-10-17T18:32:05.962Z,33.80
2022-10-17T18:42:09.585Z,36.70
2022-10-17T18:47:11.216Z,37.47
2022-10-17T18:52:19.922Z,33.28
2022-10-17T18:57:26.003Z,38.63
2022-10-17T19:02:34.270Z,35.00
2022-10-17T19:07:40.932Z,40.35
2022-10-17T19:12:44.947Z,34.43
2022-10-17T19:17:46.476Z,34.33
2022-10-17T19:22:48.171Z,36.95
2022-10-17T19:27:51.659Z,36.13
2022-10-17T19:32:53.316Z,40.22
2022-10-17T19:37:55.049Z,38.28
2022-10-17T19:42:57.050Z,40.95
2022-10-17T19:47:58.833Z,41.97
2022-10-17T19:53:00.381Z,46.75
2022-10-17T19:58:03.126Z,44.70
2022-10-17T20:03:06.949Z,42.38
2022-10-17T20:08:14.186Z,44.28
2022-10-17T20:13:15.868Z,42.25
2022-10-17T20:18:17.444Z,47.20
2022-10-17T20:23:19.320Z,41.20
2022-10-17T20:28:20.895Z,42.42
2022-10-17T20:33:31.753Z,33.10
2022-10-17T20:38:33.784Z,45.08
2022-10-17T20:43:41.190Z,33.40
2022-10-17T20:48:43.946Z,38.15
2022-10-17T20:53:45.801Z,41.60
2022-10-17T20:59:08.160Z,44.63
2022-10-17T21:09:56.165Z,44.47
2022-10-17T21:14:58.946Z,39.22
2022-10-17T21:20:07.095Z,44.05
2022-10-17T21:25:10.171Z,41.20
2022-10-17T21:30:11.868Z,42.10
2022-10-17T21:35:20.909Z,32.05
2022-10-17T21:40:26.061Z,39.20
2022-10-17T21:45:28.148Z,40.65
2022-10-17T21:50:32.809Z,37.95
2022-10-17T21:55:43.568Z,35.05
2022-10-17T22:00:47.376Z,34.88
2022-10-17T22:06:06.842Z,31.88
2022-10-17T22:11:25.520Z,38.00
2022-10-17T22:16:39.339Z,47.28
2022-10-17T22:21:45.381Z,38.80
2022-10-17T22:26:54.511Z,38.90
2022-10-17T22:31:56.042Z,38.80
2022-10-17T22:37:09.139Z,40.42
2022-10-17T22:47:24.451Z,45.45
2022-10-17T22:52:26.579Z,43.25
2022-10-17T22:57:31.636Z,32.10
2022-10-17T23:02:40.479Z,36.35
2022-10-17T23:07:41.939Z,35.50
2022-10-17T23:12:43.494Z,26.60
2022-10-17T23:17:44.914Z,23.67
2022-10-17T23:22:46.386Z,26.15
2022-10-17T23:27:48.111Z,33.10
2022-10-17T23:32:49.529Z,133.75
2022-10-17T23:37:50.920Z,75.20
2022-10-17T23:42:52.378Z,60.05
2022-10-17T23:47:53.771Z,49.42
2022-10-17T23:52:55.244Z,154.88
2022-10-17T23:57:56.660Z,45.53
